Time;durP1;ratioP1;P1;durP2;ratioP2;P2;SDS_P1;SDS_P2;PMS_P1;PMS_P2;Temp;Humidity;BMP_temperature;BMP_pressure;BME280_temperature;BME280_humidity;BME280_pressure;Samples;Min_cycle;Max_cycle;Signal;HPM_P1;HPM_P2
2023/04/11 00:00:27;;;;;;;1.58;1.13;;;10.70;99.90;;;;;;5039264;28;20029;-68
2023/04/11 00:02:53;;;;;;;3.35;1.10;;;10.60;99.90;;;;;;5038900;28;20025;-68
2023/04/11 00:05:19;;;;;;;2.58;1.35;;;10.70;99.90;;;;;;5040139;28;20067;-68
2023/04/11 00:07:45;;;;;;;3.67;1.20;;;10.60;99.90;;;;;;5039300;28;20025;-67
2023/04/11 00:10:10;;;;;;;1.85;1.17;;;10.50;99.90;;;;;;5039677;28;20043;-68
2023/04/11 00:12:36;;;;;;;3.20;1.33;;;10.50;99.90;;;;;;5045606;28;20033;-68
2023/04/11 00:15:02;;;;;;;2.78;1.15;;;10.50;99.90;;;;;;5043534;28;20026;-68
2023/04/11 00:17:30;;;;;;;1.92;1.20;;;10.50;99.90;;;;;;5045209;28;20021;-68
2023/04/11 00:19:57;;;;;;;2.83;1.33;;;10.60;99.90;;;;;;5040771;28;20048;-67
2023/04/11 00:22:23;;;;;;;2.15;1.30;;;10.70;99.90;;;;;;5040363;28;20021;-68
2023/04/11 00:24:49;;;;;;;1.00;0.90;;;10.80;99.90;;;;;;5039023;28;20053;-68
2023/04/11 00:27:14;;;;;;;2.15;1.10;;;10.70;99.90;;;;;;5039746;28;20079;-68
2023/04/11 00:29:40;;;;;;;1.80;1.13;;;10.80;99.90;;;;;;5042953;28;20022;-68
2023/04/11 00:32:06;;;;;;;1.10;1.00;;;10.80;99.90;;;;;;5041330;28;20123;-68
2023/04/11 00:34:33;;;;;;;1.48;0.85;;;10.80;99.90;;;;;;5038891;28;20026;-68
2023/04/11 00:36:58;;;;;;;3.72;0.80;;;10.80;99.90;;;;;;5039206;28;20029;-69
2023/04/11 00:39:25;;;;;;;1.92;1.13;;;10.80;99.90;;;;;;5039817;28;20036;-68
2023/04/11 00:41:51;;;;;;;3.15;1.20;;;10.70;99.90;;;;;;5038201;28;20025;-68
2023/04/11 00:44:16;;;;;;;1.20;0.80;;;10.70;99.90;;;;;;5039038;28;20021;-68
2023/04/11 00:46:44;;;;;;;1.10;0.90;;;10.60;99.90;;;;;;5039424;28;20026;-68
2023/04/11 00:49:10;;;;;;;3.33;0.70;;;10.60;99.90;;;;;;5039696;28;20025;-68
2023/04/11 00:51:36;;;;;;;1.85;0.60;;;10.60;99.90;;;;;;5038471;28;20029;-68
2023/04/11 00:54:01;;;;;;;5.53;0.80;;;10.50;99.90;;;;;;5040648;28;20029;-68
2023/04/11 00:56:28;;;;;;;1.85;0.90;;;10.30;99.90;;;;;;5039735;28;20029;-70
2023/04/11 00:58:54;;;;;;;0.90;0.50;;;10.30;99.90;;;;;;5039099;28;20026;-70
2023/04/11 01:01:22;;;;;;;2.90;0.60;;;10.30;99.90;;;;;;5039500;28;20032;-68
2023/04/11 01:03:48;;;;;;;3.47;0.80;;;10.40;99.90;;;;;;5038997;28;20056;-68
2023/04/11 01:06:16;;;;;;;1.38;0.70;;;10.40;99.90;;;;;;5047496;28;20071;-69
2023/04/11 01:08:43;;;;;;;0.98;0.50;;;10.30;99.90;;;;;;5040108;28;20103;-68
2023/04/11 01:11:11;;;;;;;5.95;1.23;;;10.30;99.90;;;;;;5038157;28;20026;-68
2023/04/11 01:13:40;;;;;;;3.85;0.60;;;10.20;99.90;;;;;;5038025;28;20033;-68
2023/04/11 01:16:06;;;;;;;1.48;0.88;;;10.30;99.90;;;;;;5037995;28;20025;-68
2023/04/11 01:18:32;;;;;;;1.63;0.88;;;10.30;99.90;;;;;;5038264;28;20029;-68
2023/04/11 01:20:59;;;;;;;0.70;0.60;;;10.30;99.90;;;;;;5038192;28;20030;-68
2023/04/11 01:23:25;;;;;;;1.33;0.70;;;10.30;99.90;;;;;;5037513;28;20036;-68
2023/04/11 01:25:51;;;;;;;1.02;0.70;;;10.30;99.90;;;;;;5038358;28;20017;-68
2023/04/11 01:28:20;;;;;;;3.10;0.77;;;10.30;99.90;;;;;;5037374;28;20028;-68
2023/04/11 01:30:46;;;;;;;1.38;0.68;;;10.30;99.90;;;;;;5037629;28;20032;-68
2023/04/11 01:33:14;;;;;;;2.45;0.77;;;10.30;99.90;;;;;;5037311;28;20028;-68
2023/04/11 01:35:39;;;;;;;2.03;0.50;;;10.20;99.90;;;;;;5037159;28;20168;-68
2023/04/11 01:38:05;;;;;;;1.50;0.35;;;10.20;99.90;;;;;;5037544;28;20056;-68
2023/04/11 01:40:32;;;;;;;3.72;1.00;;;10.10;99.90;;;;;;5037001;28;20048;-68
2023/04/11 01:42:58;;;;;;;0.60;0.35;;;10.10;99.90;;;;;;5036383;28;20018;-68
2023/04/11 01:45:28;;;;;;;4.53;0.80;;;10.10;99.90;;;;;;5037517;28;20034;-68
2023/04/11 01:47:53;;;;;;;1.80;0.70;;;10.10;99.90;;;;;;5037774;28;20151;-68
2023/04/11 01:50:19;;;;;;;2.30;0.50;;;10.20;99.90;;;;;;5037033;28;20040;-68
2023/04/11 01:52:46;;;;;;;1.63;0.60;;;10.20;99.90;;;;;;5037042;28;20025;-68
2023/04/11 01:55:12;;;;;;;3.25;0.57;;;10.10;99.90;;;;;;5036810;28;20074;-68
2023/04/11 01:57:37;;;;;;;1.63;0.85;;;10.00;99.90;;;;;;5036778;28;20030;-68
2023/04/11 02:00:05;;;;;;;4.88;1.23;;;10.00;99.90;;;;;;5037037;28;20030;-68
2023/04/11 02:02:30;;;;;;;1.42;0.75;;;9.90;99.90;;;;;;5037501;28;20025;-68
2023/04/11 02:04:56;;;;;;;1.15;0.75;;;9.80;99.90;;;;;;5036943;28;20159;-68
2023/04/11 02:07:22;;;;;;;1.80;1.08;;;9.70;99.90;;;;;;5036935;28;20021;-68
2023/04/11 02:09:48;;;;;;;1.42;0.65;;;9.60;99.90;;;;;;5037301;28;20026;-68
2023/04/11 02:12:13;;;;;;;3.42;0.82;;;9.70;99.90;;;;;;5036715;28;20021;-68
2023/04/11 02:14:44;;;;;;;1.30;0.95;;;9.70;99.90;;;;;;5037038;28;20033;-68
2023/04/11 02:17:10;;;;;;;4.10;0.95;;;9.70;99.90;;;;;;5036791;28;20056;-68
2023/04/11 02:19:39;;;;;;;1.25;0.75;;;9.80;99.90;;;;;;5036703;28;20025;-68
2023/04/11 02:22:08;;;;;;;1.13;0.70;;;9.80;99.90;;;;;;5036299;28;20025;-68
2023/04/11 02:24:34;;;;;;;3.58;0.70;;;9.80;99.90;;;;;;5037041;28;20052;-69
2023/04/11 02:27:00;;;;;;;2.15;0.77;;;9.80;99.90;;;;;;5036433;28;20017;-68
2023/04/11 02:29:27;;;;;;;2.72;0.60;;;9.90;99.90;;;;;;5036301;28;20026;-68
2023/04/11 02:31:52;;;;;;;2.28;0.70;;;9.80;99.90;;;;;;5036411;28;20025;-68
2023/04/11 02:34:18;;;;;;;1.73;0.63;;;9.90;99.90;;;;;;5036746;28;20021;-68
2023/04/11 02:36:44;;;;;;;2.40;0.90;;;9.80;99.90;;;;;;5036595;28;20105;-68
2023/04/11 02:39:10;;;;;;;2.67;0.70;;;9.80;99.90;;;;;;5036044;28;20037;-68
2023/04/11 02:41:40;;;;;;;4.40;0.60;;;9.70;99.90;;;;;;5036831;28;20032;-68
2023/04/11 02:44:05;;;;;;;4.75;0.70;;;9.80;99.90;;;;;;5036367;28;20065;-68
2023/04/11 02:46:31;;;;;;;1.30;0.70;;;9.80;99.90;;;;;;5036485;28;20045;-68
2023/04/11 02:48:56;;;;;;;2.70;0.80;;;9.70;99.90;;;;;;5036246;28;20110;-68
2023/04/11 02:51:22;;;;;;;3.08;1.10;;;9.60;99.90;;;;;;5036474;28;20021;-68
2023/04/11 02:53:48;;;;;;;1.17;0.80;;;9.50;99.90;;;;;;5037267;28;20055;-68
2023/04/11 02:56:17;;;;;;;4.88;0.77;;;9.60;99.90;;;;;;5040486;28;20025;-68
2023/04/11 02:58:43;;;;;;;2.00;0.93;;;9.60;99.90;;;;;;5040494;28;20033;-68
2023/04/11 03:01:10;;;;;;;2.35;0.93;;;9.60;99.90;;;;;;5040196;28;20052;-68
2023/04/11 03:03:37;;;;;;;1.67;0.50;;;9.60;99.90;;;;;;5041164;28;20064;-68
2023/04/11 03:06:03;;;;;;;1.75;0.77;;;9.70;99.90;;;;;;5040050;28;20036;-68
2023/04/11 03:08:29;;;;;;;1.23;0.70;;;9.60;99.90;;;;;;5039951;28;20028;-68
2023/04/11 03:10:54;;;;;;;2.90;0.57;;;9.60;99.90;;;;;;5039793;28;20025;-68
2023/04/11 03:13:20;;;;;;;5.30;0.55;;;9.50;99.90;;;;;;5039814;28;20022;-68
2023/04/11 03:15:45;;;;;;;0.80;0.50;;;9.50;99.90;;;;;;5040774;28;20096;-68
2023/04/11 03:18:11;;;;;;;0.90;0.63;;;9.40;99.90;;;;;;5040099;28;20029;-68
2023/04/11 03:20:36;;;;;;;3.10;0.63;;;9.30;99.90;;;;;;5040594;28;20029;-68
2023/04/11 03:23:02;;;;;;;1.67;0.50;;;9.40;99.90;;;;;;5040134;28;20022;-68
2023/04/11 03:25:28;;;;;;;1.13;0.60;;;9.40;99.90;;;;;;5040205;28;20018;-68
2023/04/11 03:27:54;;;;;;;2.78;0.73;;;9.40;99.90;;;;;;5039708;28;20018;-68
2023/04/11 03:30:19;;;;;;;1.92;0.55;;;9.40;99.90;;;;;;5039591;28;20024;-68
2023/04/11 03:32:45;;;;;;;2.92;0.85;;;9.40;99.90;;;;;;5039519;28;20116;-68
2023/04/11 03:35:10;;;;;;;3.40;0.88;;;9.50;99.90;;;;;;5039769;28;20053;-68
2023/04/11 03:37:36;;;;;;;2.55;0.60;;;9.50;99.90;;;;;;5039722;28;20025;-68
2023/04/11 03:40:03;;;;;;;1.95;0.57;;;9.60;99.90;;;;;;5039644;28;20068;-68
2023/04/11 03:42:28;;;;;;;2.80;0.70;;;9.70;99.90;;;;;;5040130;28;20076;-68
2023/04/11 03:44:54;;;;;;;1.33;0.40;;;9.70;99.90;;;;;;5039638;28;20022;-68
2023/04/11 03:47:19;;;;;;;2.67;0.63;;;9.80;99.90;;;;;;5040154;28;20024;-68
2023/04/11 03:49:45;;;;;;;0.40;0.38;;;9.80;99.90;;;;;;5039136;28;20025;-68
2023/04/11 03:52:13;;;;;;;3.92;0.70;;;9.80;99.90;;;;;;5039163;28;20025;-68
2023/04/11 03:54:39;;;;;;;2.25;0.70;;;9.80;99.90;;;;;;5039131;28;20044;-68
2023/04/11 03:57:04;;;;;;;3.97;0.65;;;9.80;99.90;;;;;;5039224;28;20022;-68
2023/04/11 03:59:30;;;;;;;3.75;0.80;;;9.80;99.90;;;;;;5039612;28;20021;-68
2023/04/11 04:01:55;;;;;;;0.98;0.55;;;9.70;99.90;;;;;;5039926;28;20068;-68
2023/04/11 04:04:21;;;;;;;1.08;0.40;;;9.70;99.90;;;;;;5039227;28;20014;-68
2023/04/11 04:06:46;;;;;;;1.92;0.63;;;9.70;99.90;;;;;;5038955;28;20025;-69
2023/04/11 04:09:12;;;;;;;3.15;0.63;;;9.60;99.90;;;;;;5039489;28;20027;-69
2023/04/11 04:11:37;;;;;;;1.98;0.50;;;9.60;99.90;;;;;;5039155;28;20026;-69
2023/04/11 04:14:03;;;;;;;2.95;0.70;;;9.60;99.90;;;;;;5038751;28;20116;-68
2023/04/11 04:16:29;;;;;;;0.88;0.40;;;9.60;99.90;;;;;;5038868;28;20068;-68
2023/04/11 04:18:54;;;;;;;3.50;0.45;;;9.60;99.90;;;;;;5038954;28;20030;-68
2023/04/11 04:21:20;;;;;;;1.25;0.50;;;9.60;99.90;;;;;;5038842;28;20029;-68
2023/04/11 04:23:48;;;;;;;2.40;0.80;;;9.60;99.90;;;;;;5039477;28;20018;-68
2023/04/11 04:26:23;;;;;;;1.30;0.52;;;9.60;99.90;;;;;;5038890;28;20018;-68
2023/04/11 04:28:49;;;;;;;1.55;0.40;;;9.50;99.90;;;;;;5039473;28;20026;-68
2023/04/11 04:31:24;;;;;;;2.42;0.57;;;9.50;99.90;;;;;;5038426;28;20025;-68
2023/04/11 04:33:50;;;;;;;2.08;0.93;;;9.50;99.90;;;;;;5039289;28;20040;-68
2023/04/11 04:36:16;;;;;;;3.15;0.60;;;9.50;99.90;;;;;;5039356;28;20059;-68
2023/04/11 04:38:43;;;;;;;3.42;0.50;;;9.50;99.90;;;;;;5038591;28;20092;-68
2023/04/11 04:41:13;;;;;;;1.35;0.50;;;9.50;99.90;;;;;;5038113;28;20033;-68
2023/04/11 04:43:40;;;;;;;4.32;0.50;;;9.50;99.90;;;;;;5038293;28;20076;-68
2023/04/11 04:46:07;;;;;;;0.98;0.60;;;9.50;99.90;;;;;;5038477;28;20091;-68
2023/04/11 04:48:32;;;;;;;4.43;0.82;;;9.50;99.90;;;;;;5038888;28;20049;-68
2023/04/11 04:50:58;;;;;;;4.90;1.00;;;9.50;99.90;;;;;;5038451;28;20029;-68
2023/04/11 04:53:23;;;;;;;1.50;0.70;;;9.50;99.90;;;;;;5038485;28;20032;-68
2023/04/11 04:55:49;;;;;;;2.38;0.70;;;9.40;99.90;;;;;;5038705;28;20047;-68
2023/04/11 04:58:14;;;;;;;1.27;0.75;;;9.40;99.90;;;;;;5038221;28;20025;-68
2023/04/11 05:00:40;;;;;;;3.05;1.20;;;9.40;99.90;;;;;;5038201;28;20052;-68
2023/04/11 05:03:07;;;;;;;1.52;1.00;;;9.40;99.90;;;;;;5038607;28;20071;-68
2023/04/11 05:05:32;;;;;;;2.53;1.58;;;9.40;99.90;;;;;;5038261;28;20090;-68
2023/04/11 05:07:58;;;;;;;3.30;1.88;;;9.40;99.90;;;;;;5038094;28;20093;-68
2023/04/11 05:10:24;;;;;;;4.95;1.60;;;9.30;99.90;;;;;;5037890;28;20029;-68
2023/04/11 05:12:52;;;;;;;1.35;0.88;;;9.40;99.90;;;;;;5038121;28;20029;-68
2023/04/11 05:15:17;;;;;;;3.00;0.90;;;9.40;99.90;;;;;;5037596;28;20025;-68
2023/04/11 05:17:43;;;;;;;4.32;0.95;;;9.30;99.90;;;;;;5036554;28;20087;-68
2023/04/11 05:20:09;;;;;;;2.22;1.20;;;9.30;99.90;;;;;;5037765;28;20116;-68
2023/04/11 05:22:36;;;;;;;8.07;1.10;;;9.20;99.90;;;;;;5037963;28;20062;-68
2023/04/11 05:25:02;;;;;;;4.18;1.77;;;9.20;99.90;;;;;;5037565;28;20028;-68
2023/04/11 05:27:28;;;;;;;8.85;1.42;;;9.10;99.90;;;;;;5038171;28;20022;-68
2023/04/11 05:29:53;;;;;;;3.17;1.30;;;9.10;99.90;;;;;;5037399;28;20048;-68
2023/04/11 05:32:19;;;;;;;4.82;0.80;;;9.00;99.90;;;;;;5037319;28;20036;-68
2023/04/11 05:34:52;;;;;;;6.40;2.50;;;9.00;99.90;;;;;;5037506;28;20029;-68
2023/04/11 05:37:18;;;;;;;8.40;1.15;;;9.00;99.90;;;;;;5037542;28;20029;-68
2023/04/11 05:39:44;;;;;;;4.15;1.20;;;9.00;99.90;;;;;;5037130;28;20037;-68
2023/04/11 05:42:10;;;;;;;8.00;1.77;;;9.00;99.90;;;;;;5037337;28;20025;-68
2023/04/11 05:44:35;;;;;;;6.68;1.77;;;8.90;99.90;;;;;;5038254;28;20037;-68
2023/04/11 05:47:01;;;;;;;5.63;1.00;;;9.00;99.90;;;;;;5037246;28;20022;-68
2023/04/11 05:49:26;;;;;;;7.25;0.90;;;9.00;99.90;;;;;;5037764;28;20018;-72
2023/04/11 05:51:52;;;;;;;7.25;1.35;;;9.00;99.90;;;;;;5036940;28;20036;-68
2023/04/11 05:54:33;;;;;;;3.45;1.20;;;9.00;99.90;;;;;;5037671;28;20025;-72
2023/04/11 05:56:59;;;;;;;8.32;1.30;;;9.10;99.90;;;;;;5037697;28;20029;-69
2023/04/11 05:59:24;;;;;;;6.90;1.42;;;9.10;99.90;;;;;;5037040;28;20039;-69
2023/04/11 06:01:50;;;;;;;3.90;1.00;;;9.10;99.90;;;;;;5037564;28;20076;-69
2023/04/11 06:04:16;;;;;;;5.82;1.40;;;9.20;99.90;;;;;;5036743;28;20022;-69
2023/04/11 06:06:42;;;;;;;5.93;1.80;;;9.20;99.90;;;;;;5036653;28;20021;-69
2023/04/11 06:09:11;;;;;;;6.43;1.25;;;9.30;99.90;;;;;;5037325;28;20021;-69
2023/04/11 06:11:36;;;;;;;8.27;0.85;;;9.30;99.90;;;;;;5036626;28;20029;-72
2023/04/11 06:14:02;;;;;;;5.90;0.90;;;9.30;99.90;;;;;;5037478;28;20047;-72
2023/04/11 06:16:28;;;;;;;7.78;1.35;;;9.30;99.90;;;;;;5036542;28;20025;-72
2023/04/11 06:18:53;;;;;;;3.50;1.13;;;9.30;99.90;;;;;;5037145;28;20022;-72
2023/04/11 06:21:19;;;;;;;5.10;1.20;;;9.30;99.90;;;;;;5036680;28;20033;-72
2023/04/11 06:23:45;;;;;;;10.38;1.50;;;9.40;99.90;;;;;;5036757;28;20026;-72
2023/04/11 06:26:10;;;;;;;4.50;1.15;;;9.40;99.90;;;;;;5036897;28;20033;-72
2023/04/11 06:28:36;;;;;;;5.75;1.17;;;9.40;99.90;;;;;;5036431;28;20117;-71
2023/04/11 06:31:02;;;;;;;8.30;1.42;;;9.40;99.90;;;;;;5036480;28;20034;-72
2023/04/11 06:33:27;;;;;;;10.35;1.27;;;9.40;99.90;;;;;;5036825;28;20033;-77
2023/04/11 06:35:53;;;;;;;5.18;1.35;;;9.40;99.90;;;;;;5037288;28;20026;-76
2023/04/11 06:38:18;;;;;;;9.35;1.33;;;9.50;99.90;;;;;;5036227;28;20041;-68
2023/04/11 06:40:44;;;;;;;6.18;0.93;;;9.50;99.90;;;;;;5036179;28;20037;-68
2023/04/11 06:43:10;;;;;;;9.32;1.02;;;9.50;99.90;;;;;;5037112;28;20018;-69
2023/04/11 06:45:35;;;;;;;5.63;0.90;;;9.60;99.90;;;;;;5036274;28;20022;-68
2023/04/11 06:48:01;;;;;;;10.73;3.08;;;9.60;99.90;;;;;;5036261;28;20017;-74
2023/04/11 06:50:26;;;;;;;12.25;2.50;;;9.60;99.90;;;;;;5036057;28;20025;-78
2023/04/11 06:52:52;;;;;;;4.43;1.40;;;9.60;99.90;;;;;;5036046;28;20049;-77
2023/04/11 06:55:18;;;;;;;6.53;1.67;;;9.60;99.90;;;;;;5036085;28;20063;-75
2023/04/11 06:57:43;;;;;;;11.07;3.70;;;9.70;99.90;;;;;;5036061;28;20030;-78
2023/04/11 07:00:11;;;;;;;14.30;4.15;;;9.70;99.90;;;;;;5035896;28;20124;-74
2023/04/11 07:02:37;;;;;;;5.55;1.20;;;9.70;99.90;;;;;;5036460;28;20022;-74
2023/04/11 07:05:04;;;;;;;6.22;1.13;;;9.70;99.90;;;;;;5036890;28;20017;-77
2023/04/11 07:07:30;;;;;;;5.03;1.17;;;9.70;99.90;;;;;;5035906;28;20076;-75
2023/04/11 07:09:56;;;;;;;8.80;1.20;;;9.70;99.90;;;;;;5035709;28;20071;-75
2023/04/11 07:12:21;;;;;;;10.43;1.70;;;9.70;99.90;;;;;;5036307;28;20025;-77
2023/04/11 07:14:47;;;;;;;6.43;1.73;;;9.70;99.90;;;;;;5036156;28;20029;-77
2023/04/11 07:17:12;;;;;;;6.85;1.70;;;9.80;99.90;;;;;;5036228;28;20029;-75
2023/04/11 07:19:38;;;;;;;13.05;2.15;;;9.90;99.90;;;;;;5036009;28;20045;-74
2023/04/11 07:22:04;;;;;;;8.15;1.52;;;10.00;99.90;;;;;;5035817;28;20025;-76
2023/04/11 07:24:29;;;;;;;7.10;1.50;;;10.10;99.90;;;;;;5036019;28;20083;-76
2023/04/11 07:26:57;;;;;;;9.90;1.13;;;10.20;99.90;;;;;;5036354;28;20033;-77
2023/04/11 07:29:23;;;;;;;9.60;1.35;;;10.20;99.90;;;;;;5036017;28;20028;-77
2023/04/11 07:31:50;;;;;;;14.00;1.30;;;10.30;99.90;;;;;;5035710;28;20022;-77
2023/04/11 07:34:15;;;;;;;9.90;1.30;;;10.20;99.90;;;;;;5035788;28;20096;-76
2023/04/11 07:36:41;;;;;;;7.72;1.77;;;10.20;99.90;;;;;;5035982;28;20064;-78
2023/04/11 07:39:08;;;;;;;5.60;1.23;;;10.20;99.90;;;;;;5035964;28;20029;-73
2023/04/11 07:41:37;;;;;;;6.93;1.17;;;10.20;99.90;;;;;;5038346;28;20025;-73
2023/04/11 07:44:05;;;;;;;5.82;1.48;;;10.20;99.90;;;;;;5039414;28;20017;-74
2023/04/11 07:46:32;;;;;;;7.40;1.50;;;10.00;99.90;;;;;;5039600;28;20048;-77
2023/04/11 07:48:58;;;;;;;8.98;1.42;;;10.00;99.90;;;;;;5039943;28;20021;-78
2023/04/11 07:51:25;;;;;;;6.68;1.42;;;10.10;99.90;;;;;;5040331;28;20025;-77
2023/04/11 07:53:50;;;;;;;8.43;1.88;;;10.20;99.90;;;;;;5039564;28;20033;-76
2023/04/11 07:56:16;;;;;;;11.95;1.80;;;10.30;99.90;;;;;;5039746;28;20083;-75
2023/04/11 07:58:42;;;;;;;11.68;1.63;;;10.40;99.90;;;;;;5039153;28;20105;-78
2023/04/11 08:01:27;;;;;;;5.68;1.13;;;10.50;99.90;;;;;;5038867;28;20035;-77
2023/04/11 08:03:54;;;;;;;6.72;1.50;;;10.70;99.90;;;;;;5039974;28;20025;-77
2023/04/11 08:06:20;;;;;;;5.97;2.17;;;10.80;99.90;;;;;;5039269;28;20018;-77
2023/04/11 08:08:46;;;;;;;4.00;1.20;;;10.80;99.90;;;;;;5039262;28;20033;-77
2023/04/11 08:11:12;;;;;;;12.65;1.92;;;10.80;99.90;;;;;;5039236;28;20021;-78
2023/04/11 08:13:38;;;;;;;7.95;1.38;;;10.80;99.90;;;;;;5040084;28;20026;-77
2023/04/11 08:16:09;;;;;;;6.22;1.27;;;10.90;99.90;;;;;;5040001;28;20025;-77
2023/04/11 08:18:36;;;;;;;8.15;1.33;;;10.90;99.90;;;;;;5038987;28;20029;-78
2023/04/11 08:21:02;;;;;;;5.63;1.50;;;10.90;99.90;;;;;;5038570;28;20034;-77
2023/04/11 08:23:28;;;;;;;5.25;0.93;;;10.80;99.90;;;;;;5039492;28;20029;-78
2023/04/11 08:25:54;;;;;;;13.23;3.05;;;10.90;99.90;;;;;;5038496;28;20018;-78
2023/04/11 08:28:21;;;;;;;6.50;1.35;;;10.80;99.90;;;;;;5039440;28;20022;-77
2023/04/11 08:30:47;;;;;;;11.23;2.10;;;10.80;99.90;;;;;;5038827;28;20108;-77
2023/04/11 08:33:14;;;;;;;8.73;1.55;;;10.70;99.90;;;;;;5038461;28;20060;-77
2023/04/11 08:35:41;;;;;;;7.32;1.45;;;10.60;99.90;;;;;;5039405;28;20068;-77
2023/04/11 08:38:08;;;;;;;6.63;1.73;;;10.60;99.90;;;;;;5038391;28;20056;-77
2023/04/11 08:40:33;;;;;;;5.57;1.20;;;10.70;99.90;;;;;;5038491;28;20045;-77
2023/04/11 08:42:59;;;;;;;4.93;1.23;;;10.80;99.90;;;;;;5039080;28;20025;-77
2023/04/11 08:45:25;;;;;;;13.18;1.50;;;11.00;99.90;;;;;;5038558;28;20032;-77
2023/04/11 08:47:51;;;;;;;9.43;1.75;;;11.10;99.90;;;;;;5038518;28;20030;-77
2023/04/11 08:50:17;;;;;;;10.70;2.80;;;11.10;99.90;;;;;;5039017;28;20039;-77
2023/04/11 08:52:43;;;;;;;7.00;1.30;;;11.10;99.90;;;;;;5038859;28;20026;-78
2023/04/11 08:55:09;;;;;;;7.28;1.23;;;11.10;99.90;;;;;;5038874;28;20114;-78
2023/04/11 08:57:36;;;;;;;11.65;2.28;;;11.20;99.90;;;;;;5038252;28;20072;-77
2023/04/11 09:00:16;;;;;;;6.57;1.50;;;11.10;99.90;;;;;;5038865;28;20119;-77
2023/04/11 09:02:58;;;;;;;12.73;1.50;;;11.10;99.90;;;;;;5037917;28;20026;-77
2023/04/11 09:05:38;;;;;;;4.97;1.27;;;11.20;99.90;;;;;;5037902;28;20089;-77
2023/04/11 09:08:06;;;;;;;4.88;1.50;;;11.30;99.90;;;;;;5037930;28;20063;-77
2023/04/11 09:10:32;;;;;;;5.35;1.38;;;11.20;99.90;;;;;;5038165;28;20112;-77
2023/04/11 09:12:58;;;;;;;5.25;1.10;;;11.20;99.90;;;;;;5037782;28;20113;-77
2023/04/11 09:15:27;;;;;;;4.18;1.10;;;11.20;99.90;;;;;;5037936;28;20026;-77
2023/04/11 09:17:53;;;;;;;7.90;1.42;;;11.20;99.90;;;;;;5037710;28;20032;-78
2023/04/11 09:20:24;;;;;;;7.28;1.25;;;11.10;99.90;;;;;;5037449;28;20032;-77
2023/04/11 09:22:51;;;;;;;5.63;1.57;;;11.00;99.90;;;;;;5038352;28;20091;-75
2023/04/11 09:25:18;;;;;;;9.27;2.38;;;10.90;99.90;;;;;;5038273;28;20026;-75
2023/04/11 09:27:43;;;;;;;5.68;1.33;;;11.00;99.90;;;;;;5037996;28;20024;-75
2023/04/11 09:30:21;;;;;;;6.63;1.30;;;11.10;99.90;;;;;;5038220;28;20018;-75
2023/04/11 09:32:47;;;;;;;6.38;1.55;;;11.10;99.90;;;;;;5037338;28;20029;-75
2023/04/11 09:35:27;;;;;;;7.85;1.50;;;11.20;99.90;;;;;;5038079;28;20033;-75
2023/04/11 09:37:59;;;;;;;5.28;1.20;;;11.50;99.90;;;;;;5038106;28;20087;-75
2023/04/11 09:40:32;;;;;;;3.67;1.17;;;11.60;99.90;;;;;;5037217;28;20033;-75
2023/04/11 09:43:00;;;;;;;4.05;1.00;;;11.80;99.90;;;;;;5037539;28;20045;-75
2023/04/11 09:45:27;;;;;;;6.07;1.15;;;12.00;99.90;;;;;;5037431;28;20121;-75
2023/04/11 09:47:55;;;;;;;4.65;1.13;;;12.20;99.90;;;;;;5037834;28;20025;-75
2023/04/11 09:50:21;;;;;;;5.75;1.40;;;12.40;99.90;;;;;;5037417;28;20043;-75
2023/04/11 09:52:47;;;;;;;2.85;1.30;;;12.40;99.90;;;;;;5037094;28;20080;-75
2023/04/11 09:55:17;;;;;;;3.50;1.08;;;12.50;99.90;;;;;;5036943;28;20026;-75
2023/04/11 09:57:46;;;;;;;3.75;0.98;;;12.60;99.90;;;;;;5037724;28;20056;-75
2023/04/11 10:00:23;;;;;;;3.20;0.77;;;12.80;99.90;;;;;;5037363;28;20028;-75
2023/04/11 10:02:51;;;;;;;16.92;1.50;;;12.90;99.90;;;;;;5037412;28;20038;-75
2023/04/11 10:05:18;;;;;;;5.70;1.20;;;13.00;99.90;;;;;;5037677;28;20048;-75
2023/04/11 10:07:47;;;;;;;6.82;1.55;;;13.10;99.90;;;;;;5036677;28;20026;-75
2023/04/11 10:10:21;;;;;;;4.05;0.88;;;13.00;99.90;;;;;;5036729;28;20021;-75
2023/04/11 10:12:47;;;;;;;3.28;0.98;;;12.90;99.90;;;;;;5037511;28;20034;-75
2023/04/11 10:15:13;;;;;;;2.92;0.80;;;12.90;99.90;;;;;;5036869;28;20033;-75
2023/04/11 10:17:42;;;;;;;5.35;1.02;;;13.10;99.90;;;;;;5036755;28;20025;-75
2023/04/11 10:20:42;;;;;;;2.88;1.00;;;13.40;99.90;;;;;;5036427;28;20025;-75
2023/04/11 10:23:08;;;;;;;5.75;0.80;;;13.60;99.90;;;;;;5036715;28;20026;-75
2023/04/11 10:25:54;;;;;;;3.72;1.27;;;13.80;99.90;;;;;;5036838;28;20034;-75
2023/04/11 10:28:30;;;;;;;7.18;1.00;;;14.00;99.90;;;;;;5036708;28;20013;-75
2023/04/11 10:31:03;;;;;;;1.17;0.60;;;14.10;99.90;;;;;;5036303;28;20030;-75
2023/04/11 10:33:29;;;;;;;3.75;1.20;;;14.20;99.90;;;;;;5036631;28;20026;-75
2023/04/11 10:36:00;;;;;;;4.30;1.00;;;14.30;99.90;;;;;;5036530;28;20022;-75
2023/04/11 10:38:47;;;;;;;3.55;1.63;;;14.40;99.90;;;;;;5037102;28;20064;-75
2023/04/11 10:41:21;;;;;;;5.88;1.55;;;14.40;99.90;;;;;;5036047;28;20029;-75
2023/04/11 10:43:48;;;;;;;4.70;1.60;;;14.40;99.90;;;;;;5036602;28;20022;-75
2023/04/11 10:46:19;;;;;;;3.30;1.30;;;14.40;99.90;;;;;;5036145;28;20048;-75
2023/04/11 10:49:01;;;;;;;4.68;1.05;;;14.70;99.90;;;;;;5037140;28;20021;-75
2023/04/11 10:51:29;;;;;;;2.65;1.10;;;15.00;99.90;;;;;;5036891;28;20033;-75
2023/04/11 10:53:58;;;;;;;2.28;0.73;;;15.10;99.90;;;;;;5036302;28;20033;-75
2023/04/11 10:56:41;;;;;;;5.30;0.70;;;15.20;99.90;;;;;;5036129;28;20032;-75
2023/04/11 10:59:26;;;;;;;3.10;1.10;;;15.40;99.90;;;;;;5036677;28;20026;-75
2023/04/11 11:01:54;;;;;;;4.43;1.00;;;15.50;99.00;;;;;;5036022;28;20033;-75
2023/04/11 11:04:29;;;;;;;2.90;0.75;;;15.60;98.90;;;;;;5036178;28;20071;-74
2023/04/11 11:06:54;;;;;;;5.07;0.80;;;15.70;98.10;;;;;;5036102;28;20032;-74
2023/04/11 11:09:22;;;;;;;3.80;0.98;;;15.70;97.70;;;;;;5035850;28;20120;-74
2023/04/11 11:12:05;;;;;;;3.40;0.60;;;15.80;96.30;;;;;;5036336;28;20102;-75
2023/04/11 11:14:30;;;;;;;2.00;0.60;;;16.10;97.30;;;;;;5036710;28;20026;-75
2023/04/11 11:16:56;;;;;;;3.88;0.98;;;16.30;95.80;;;;;;5039077;28;20033;-75
2023/04/11 11:19:22;;;;;;;11.40;1.27;;;16.70;96.00;;;;;;5039956;28;20026;-75
2023/04/11 11:21:49;;;;;;;2.15;0.75;;;17.00;97.80;;;;;;5040009;28;20032;-74
2023/04/11 11:24:23;;;;;;;5.07;0.70;;;17.20;94.30;;;;;;5040146;28;20077;-75
2023/04/11 11:26:49;;;;;;;4.07;0.90;;;17.20;93.70;;;;;;5039743;28;20022;-74
2023/04/11 11:29:15;;;;;;;2.60;0.80;;;17.30;94.60;;;;;;5039650;28;20116;-75
2023/04/11 11:31:46;;;;;;;3.88;0.77;;;17.50;92.30;;;;;;5040379;28;20032;-75
2023/04/11 11:34:12;;;;;;;2.35;0.90;;;17.50;91.40;;;;;;5039935;28;20076;-75
2023/04/11 11:36:42;;;;;;;1.75;0.90;;;17.50;90.80;;;;;;5040348;28;20033;-75
2023/04/11 11:39:09;;;;;;;2.53;0.75;;;17.40;89.00;;;;;;5039429;28;20033;-75
2023/04/11 11:41:35;;;;;;;4.22;0.80;;;17.30;87.00;;;;;;5040201;28;20033;-75
2023/04/11 11:44:02;;;;;;;4.22;0.80;;;17.10;86.70;;;;;;5039348;28;20022;-75
2023/04/11 11:46:32;;;;;;;1.92;0.73;;;17.00;87.10;;;;;;5040161;28;20017;-75
2023/04/11 11:49:03;;;;;;;4.22;1.05;;;16.80;84.90;;;;;;5039451;28;20022;-75
2023/04/11 11:51:48;;;;;;;4.15;0.70;;;16.40;84.50;;;;;;5040029;28;20025;-75
2023/04/11 11:54:14;;;;;;;1.90;0.68;;;16.40;87.10;;;;;;5039501;28;20049;-75
2023/04/11 11:56:40;;;;;;;2.72;0.80;;;16.70;85.40;;;;;;5039234;28;20025;-73
2023/04/11 11:59:07;;;;;;;5.13;0.85;;;17.10;88.30;;;;;;5040173;28;20036;-73
2023/04/11 12:01:33;;;;;;;4.97;1.52;;;17.40;86.80;;;;;;5039036;28;20021;-73
2023/04/11 12:03:59;;;;;;;3.05;0.90;;;17.70;87.10;;;;;;5038995;28;20017;-73
2023/04/11 12:06:32;;;;;;;2.25;1.10;;;17.80;84.10;;;;;;5039315;28;20074;-75
2023/04/11 12:09:15;;;;;;;2.08;0.85;;;17.60;81.10;;;;;;5039129;28;20086;-73
2023/04/11 12:11:43;;;;;;;1.38;0.70;;;17.60;79.50;;;;;;5039708;28;20029;-73
2023/04/11 12:14:09;;;;;;;4.13;0.82;;;17.90;79.20;;;;;;5039055;28;20032;-73
2023/04/11 12:16:38;;;;;;;2.50;0.82;;;18.10;78.70;;;;;;5039743;28;20025;-73
2023/04/11 12:19:04;;;;;;;4.95;0.90;;;18.20;77.10;;;;;;5039094;28;20044;-73
2023/04/11 12:21:30;;;;;;;3.70;1.33;;;18.10;74.60;;;;;;5038665;28;20033;-73
2023/04/11 12:23:56;;;;;;;8.95;1.30;;;18.30;75.20;;;;;;5039183;28;20033;-73
2023/04/11 12:26:22;;;;;;;3.38;1.25;;;18.50;74.10;;;;;;5041115;28;20022;-73
2023/04/11 12:28:49;;;;;;;16.88;4.55;;;18.40;69.90;;;;;;5052826;28;20020;-73
2023/04/11 12:31:15;;;;;;;9.18;2.90;;;18.60;75.00;;;;;;5040244;28;20044;-74
2023/04/11 12:33:40;;;;;;;2.47;0.80;;;18.90;71.90;;;;;;5032491;28;20108;-74
2023/04/11 12:36:06;;;;;;;3.55;1.08;;;19.20;67.60;;;;;;5046588;28;20033;-74
2023/04/11 12:38:32;;;;;;;3.88;1.48;;;19.30;66.30;;;;;;5038327;28;20033;-74
2023/04/11 12:40:58;;;;;;;5.93;0.98;;;19.00;66.50;;;;;;5038076;28;20029;-74
2023/04/11 12:43:23;;;;;;;8.20;0.85;;;18.80;67.90;;;;;;5045515;28;20024;-74
2023/04/11 12:45:49;;;;;;;2.08;0.57;;;18.60;68.50;;;;;;5040739;28;20025;-75
2023/04/11 12:48:14;;;;;;;2.85;1.05;;;18.30;69.70;;;;;;5038187;28;20151;-75
2023/04/11 12:50:40;;;;;;;4.22;0.93;;;17.90;70.00;;;;;;5038574;28;20032;-75